createdAt,value
2023-06-19T00:00:14.955Z,9.90
2023-06-19T00:02:42.617Z,10.43
2023-06-19T00:05:11.045Z,10.40
2023-06-19T00:07:40.964Z,10.07
2023-06-19T00:10:08.233Z,10.53
2023-06-19T00:12:35.191Z,10.40
2023-06-19T00:15:02.228Z,9.80
2023-06-19T00:17:31.744Z,10.00
2023-06-19T00:19:58.707Z,10.20
2023-06-19T00:22:31.342Z,11.50
2023-06-19T00:24:58.550Z,9.77
2023-06-19T00:27:25.485Z,10.10
2023-06-19T00:29:52.709Z,9.73
2023-06-19T00:32:19.741Z,10.23
2023-06-19T00:34:46.687Z,10.10
2023-06-19T00:37:18.067Z,10.47
2023-06-19T00:39:45.235Z,10.40
2023-06-19T00:42:12.435Z,10.40
2023-06-19T00:44:40.130Z,10.77
2023-06-19T00:47:07.208Z,10.53
2023-06-19T00:49:34.493Z,10.20
2023-06-19T00:52:01.503Z,10.53
2023-06-19T00:54:28.475Z,10.50
2023-06-19T00:56:55.446Z,10.43
2023-06-19T00:59:25.351Z,10.43
2023-06-19T01:01:52.311Z,11.07
2023-06-19T01:04:21.981Z,9.93
2023-06-19T01:07:10.503Z,10.33
2023-06-19T01:09:48.971Z,10.60
2023-06-19T01:12:25.200Z,10.10
2023-06-19T01:14:59.765Z,10.67
2023-06-19T01:17:30.868Z,10.77
2023-06-19T01:19:59.061Z,10.70
2023-06-19T01:22:31.354Z,10.90
2023-06-19T01:25:01.027Z,10.80
2023-06-19T01:27:31.564Z,10.53
2023-06-19T01:30:03.019Z,10.73
2023-06-19T01:32:57.255Z,10.53
2023-06-19T01:35:30.959Z,10.53
2023-06-19T01:38:00.319Z,10.97
2023-06-19T01:40:28.847Z,9.63
2023-06-19T01:43:00.417Z,11.20
2023-06-19T01:45:30.409Z,11.53
2023-06-19T01:47:58.274Z,11.57
2023-06-19T01:50:26.215Z,11.17
2023-06-19T01:52:53.674Z,11.30
2023-06-19T01:55:21.331Z,11.23
2023-06-19T01:57:51.409Z,11.13
2023-06-19T02:00:19.135Z,10.80
2023-06-19T02:02:50.706Z,10.47
2023-06-19T02:05:19.850Z,11.27
2023-06-19T02:07:46.744Z,10.53
2023-06-19T02:10:15.746Z,11.20
2023-06-19T02:12:42.620Z,11.10
2023-06-19T02:15:14.646Z,11.30
2023-06-19T02:17:43.508Z,11.30
2023-06-19T02:20:12.539Z,11.23
2023-06-19T02:22:40.401Z,11.60
2023-06-19T02:25:13.088Z,10.70
2023-06-19T02:27:39.986Z,11.57
2023-06-19T02:30:07.827Z,11.23
2023-06-19T02:32:37.273Z,11.60
2023-06-19T02:35:10.222Z,11.30
2023-06-19T02:37:39.282Z,11.43
2023-06-19T02:40:07.542Z,10.73
2023-06-19T02:42:34.516Z,10.80
2023-06-19T02:45:04.551Z,11.47
2023-06-19T02:47:35.081Z,10.93
2023-06-19T02:50:05.820Z,11.40
2023-06-19T02:52:32.964Z,11.83
2023-06-19T02:55:02.357Z,11.77
2023-06-19T02:57:29.268Z,11.43
2023-06-19T02:59:56.127Z,11.80
2023-06-19T03:02:23.097Z,11.13
2023-06-19T03:04:52.339Z,11.30
2023-06-19T03:07:19.227Z,10.43
2023-06-19T03:09:48.606Z,11.67
2023-06-19T03:12:17.687Z,11.70
2023-06-19T03:14:44.677Z,11.20
2023-06-19T03:17:11.672Z,11.03
2023-06-19T03:19:38.676Z,10.90
2023-06-19T03:22:05.979Z,10.60
2023-06-19T03:24:33.011Z,10.97
2023-06-19T03:26:59.936Z,11.10
2023-06-19T03:29:26.828Z,11.30
2023-06-19T03:31:57.180Z,11.30
2023-06-19T03:34:28.714Z,11.43
2023-06-19T03:36:58.850Z,11.60
2023-06-19T03:39:26.030Z,11.43
2023-06-19T03:41:52.918Z,12.10
2023-06-19T03:44:19.887Z,11.20
2023-06-19T03:46:48.582Z,10.70
2023-06-19T03:49:15.584Z,11.83
2023-06-19T03:51:42.496Z,11.27
2023-06-19T03:54:09.406Z,11.00
2023-06-19T03:56:36.273Z,10.80
2023-06-19T03:59:03.211Z,11.40
2023-06-19T04:01:30.238Z,11.00
2023-06-19T04:04:00.358Z,11.07
2023-06-19T04:06:27.420Z,11.23
2023-06-19T04:08:56.813Z,10.67
2023-06-19T04:11:23.748Z,11.57
2023-06-19T04:13:50.629Z,10.90
2023-06-19T04:16:17.661Z,11.70
2023-06-19T04:18:44.616Z,11.50
2023-06-19T04:21:11.500Z,10.90
2023-06-19T04:23:38.401Z,11.70
2023-06-19T04:26:05.311Z,10.80
2023-06-19T04:28:32.207Z,10.70
2023-06-19T04:31:03.872Z,10.90
2023-06-19T04:33:31.014Z,10.90
2023-06-19T04:36:02.906Z,12.40
2023-06-19T04:38:29.811Z,11.50
2023-06-19T04:40:58.766Z,12.23
2023-06-19T04:43:25.985Z,11.83
2023-06-19T04:45:53.303Z,12.00
2023-06-19T04:48:20.332Z,12.03
2023-06-19T04:50:49.407Z,10.63
2023-06-19T04:53:18.845Z,11.40
2023-06-19T04:55:46.106Z,14.63
2023-06-19T04:58:15.512Z,10.30
2023-06-19T05:00:52.093Z,11.57
2023-06-19T05:03:19.640Z,11.33
2023-06-19T05:05:46.877Z,11.87
2023-06-19T05:08:14.117Z,11.03
2023-06-19T05:10:41.059Z,11.20
2023-06-19T05:13:07.999Z,11.17
2023-06-19T05:15:35.182Z,11.27
2023-06-19T05:18:02.123Z,13.07
2023-06-19T05:20:33.937Z,11.60
2023-06-19T05:23:00.805Z,11.00
2023-06-19T05:25:28.744Z,10.70
2023-06-19T05:27:55.695Z,11.33
2023-06-19T05:30:22.912Z,10.93
2023-06-19T05:32:49.995Z,10.67
2023-06-19T05:35:20.030Z,11.27
2023-06-19T05:37:46.919Z,11.13
2023-06-19T05:40:14.416Z,11.87
2023-06-19T05:42:42.103Z,11.87
2023-06-19T05:45:09.354Z,10.47
2023-06-19T05:47:36.344Z,10.93
2023-06-19T05:50:07.070Z,11.23
2023-06-19T05:52:34.056Z,12.00
2023-06-19T05:55:03.475Z,11.27
2023-06-19T05:57:30.407Z,10.70
2023-06-19T05:59:59.843Z,11.97
2023-06-19T06:02:26.985Z,11.57
2023-06-19T06:04:53.995Z,11.80
2023-06-19T06:07:23.023Z,11.23
2023-06-19T06:09:52.400Z,12.43
2023-06-19T06:12:19.277Z,10.90
2023-06-19T06:14:46.226Z,11.60
2023-06-19T06:17:13.098Z,12.23
2023-06-19T06:19:40.269Z,13.00
2023-06-19T06:22:12.804Z,12.23
2023-06-19T06:24:42.302Z,12.33
2023-06-19T06:27:11.486Z,12.50
2023-06-19T06:29:38.455Z,13.53
2023-06-19T06:32:10.315Z,12.50
2023-06-19T06:34:37.306Z,12.37
2023-06-19T06:37:08.823Z,11.63
2023-06-19T06:39:35.759Z,12.97
2023-06-19T06:42:05.116Z,12.40
2023-06-19T06:44:32.059Z,12.07
2023-06-19T06:47:02.244Z,12.43
2023-06-19T06:49:31.407Z,13.10
2023-06-19T06:51:58.564Z,12.10
2023-06-19T06:54:25.928Z,13.10
2023-06-19T06:56:57.154Z,12.80
2023-06-19T06:59:24.131Z,12.50
2023-06-19T07:01:53.172Z,12.70
2023-06-19T07:04:20.135Z,13.10
2023-06-19T07:06:50.049Z,12.63
2023-06-19T07:09:17.047Z,13.50
2023-06-19T07:11:43.951Z,12.60
2023-06-19T07:14:10.954Z,12.70
2023-06-19T07:16:37.913Z,13.30
2023-06-19T07:19:04.934Z,13.47
2023-06-19T07:21:32.476Z,13.30
2023-06-19T07:24:00.306Z,12.90
2023-06-19T07:26:27.234Z,13.17
2023-06-19T07:28:59.276Z,13.03
2023-06-19T07:31:28.290Z,13.10
2023-06-19T07:33:57.743Z,13.30
2023-06-19T07:36:26.954Z,12.67
2023-06-19T07:38:54.285Z,12.67
2023-06-19T07:41:21.194Z,12.57
2023-06-19T07:43:48.466Z,13.30
2023-06-19T07:46:18.442Z,13.00
2023-06-19T07:48:47.627Z,13.40
2023-06-19T07:51:17.063Z,13.00
2023-06-19T07:53:46.609Z,13.67
2023-06-19T07:56:13.720Z,13.03
2023-06-19T07:58:40.743Z,13.13
2023-06-19T08:01:07.716Z,14.00
2023-06-19T08:03:34.740Z,12.27
2023-06-19T08:06:04.105Z,13.13
2023-06-19T08:08:33.238Z,12.07
2023-06-19T08:11:02.742Z,12.50
2023-06-19T08:13:29.649Z,11.77
2023-06-19T08:15:56.563Z,13.07
2023-06-19T08:18:23.557Z,11.97
2023-06-19T08:20:55.307Z,11.60
2023-06-19T08:23:22.194Z,12.30
2023-06-19T08:25:49.096Z,12.13
2023-06-19T08:28:18.550Z,12.10
2023-06-19T08:30:55.781Z,11.03
2023-06-19T08:33:22.708Z,12.30
2023-06-19T08:35:49.676Z,13.30
2023-06-19T08:38:16.612Z,12.40
2023-06-19T08:40:48.517Z,11.43
2023-06-19T08:43:15.533Z,11.23
2023-06-19T08:45:44.629Z,12.23
2023-06-19T08:48:17.453Z,12.93
2023-06-19T08:50:44.368Z,11.70
2023-06-19T08:53:13.525Z,11.50
2023-06-19T08:55:42.547Z,12.43
2023-06-19T08:58:14.485Z,11.83
2023-06-19T09:00:41.393Z,11.07
2023-06-19T09:03:14.719Z,12.33
2023-06-19T09:05:51.386Z,12.80
2023-06-19T09:08:20.619Z,12.30
2023-06-19T09:11:03.341Z,12.33
2023-06-19T09:13:36.018Z,12.80
2023-06-19T09:16:08.686Z,12.43
2023-06-19T09:18:49.697Z,12.43
2023-06-19T09:21:23.283Z,12.77
2023-06-19T09:23:53.394Z,11.37
2023-06-19T09:26:25.031Z,12.10
2023-06-19T09:28:54.298Z,12.00
2023-06-19T09:31:21.254Z,11.20
2023-06-19T09:33:50.282Z,11.47
2023-06-19T09:36:17.313Z,12.90
2023-06-19T09:38:46.815Z,11.80
2023-06-19T09:41:16.544Z,12.57
2023-06-19T09:43:50.114Z,12.70
2023-06-19T09:46:19.656Z,11.10
2023-06-19T09:48:49.783Z,10.87
2023-06-19T09:51:32.191Z,11.90
2023-06-19T09:54:00.368Z,11.60
2023-06-19T09:56:30.340Z,11.83
2023-06-19T09:59:01.264Z,11.63
2023-06-19T10:01:33.338Z,13.37
2023-06-19T10:04:09.183Z,12.10
2023-06-19T10:06:47.595Z,13.07
2023-06-19T10:09:19.286Z,13.17
2023-06-19T10:11:54.782Z,12.00
2023-06-19T10:14:23.399Z,12.13
2023-06-19T10:16:50.758Z,12.23
2023-06-19T10:19:23.567Z,11.70
2023-06-19T10:21:58.828Z,11.63
2023-06-19T10:24:29.554Z,11.50
2023-06-19T10:27:02.252Z,11.10
2023-06-19T10:29:41.612Z,11.23
2023-06-19T10:32:17.730Z,11.17
2023-06-19T10:34:50.183Z,10.33
2023-06-19T10:37:35.516Z,9.73
2023-06-19T10:40:10.680Z,10.57
2023-06-19T10:42:41.361Z,11.20
2023-06-19T10:45:13.495Z,11.83
2023-06-19T10:47:42.101Z,10.80
2023-06-19T10:50:18.025Z,11.23
2023-06-19T10:52:46.557Z,10.93
2023-06-19T10:55:14.201Z,10.33
2023-06-19T10:57:47.759Z,11.33
2023-06-19T11:00:30.954Z,10.30
2023-06-19T11:02:59.802Z,10.03
2023-06-19T11:05:31.726Z,10.23
2023-06-19T11:08:00.302Z,10.50
2023-06-19T11:10:36.285Z,9.13
2023-06-19T11:13:05.403Z,10.87
2023-06-19T11:15:35.962Z,9.80
2023-06-19T11:18:09.387Z,9.60
2023-06-19T11:20:49.376Z,9.30
2023-06-19T11:23:18.558Z,9.30
2023-06-19T11:25:50.519Z,9.10
2023-06-19T11:28:26.984Z,9.90
2023-06-19T11:31:04.722Z,9.30
2023-06-19T11:33:31.974Z,9.80
2023-06-19T11:36:02.567Z,11.60
2023-06-19T11:38:29.837Z,9.23
2023-06-19T11:40:57.966Z,9.50
2023-06-19T11:43:36.252Z,10.10
2023-06-19T11:46:05.542Z,9.27
2023-06-19T11:48:40.078Z,8.80
2023-06-19T11:51:07.074Z,9.03
2023-06-19T11:53:33.990Z,9.53
2023-06-19T11:56:01.499Z,8.80
2023-06-19T11:58:28.376Z,8.43
2023-06-19T12:00:57.605Z,7.83
2023-06-19T12:03:29.220Z,7.30
2023-06-19T12:05:56.312Z,7.90
2023-06-19T12:08:25.769Z,7.00
2023-06-19T12:10:54.796Z,7.87
2023-06-19T12:13:23.935Z,7.57
2023-06-19T12:15:52.238Z,8.40
2023-06-19T12:18:19.161Z,8.33
2023-06-19T12:20:46.061Z,8.03
2023-06-19T12:23:13.050Z,8.50
2023-06-19T12:25:39.969Z,9.60
2023-06-19T12:28:09.166Z,8.77
2023-06-19T12:30:40.710Z,8.90
2023-06-19T12:33:10.821Z,8.30
2023-06-19T12:35:45.542Z,9.77
2023-06-19T12:38:15.459Z,8.50
2023-06-19T12:40:42.616Z,7.87
2023-06-19T12:43:12.084Z,7.80
2023-06-19T12:45:39.025Z,9.00
2023-06-19T12:48:06.512Z,8.27
2023-06-19T12:50:35.673Z,7.57
2023-06-19T12:53:02.554Z,8.23
2023-06-19T12:55:31.975Z,9.20
2023-06-19T12:57:58.974Z,8.53
2023-06-19T13:00:26.202Z,9.50
2023-06-19T13:02:53.329Z,8.07
2023-06-19T13:05:20.284Z,8.80
2023-06-19T13:07:51.855Z,7.23
2023-06-19T13:10:22.480Z,6.93
2023-06-19T13:12:54.169Z,6.80
2023-06-19T13:15:23.407Z,6.50
2023-06-19T13:17:50.400Z,6.10
2023-06-19T13:20:20.008Z,6.10
2023-06-19T13:22:47.011Z,6.70
2023-06-19T13:25:18.558Z,6.80
2023-06-19T13:27:47.679Z,6.10
2023-06-19T13:30:15.210Z,6.00
2023-06-19T13:32:46.724Z,5.80
2023-06-19T13:35:13.738Z,5.20
2023-06-19T13:37:40.973Z,5.17
2023-06-19T13:40:11.383Z,4.80
2023-06-19T13:42:40.589Z,5.13
2023-06-19T13:45:08.261Z,5.13
2023-06-19T13:47:38.135Z,4.87
2023-06-19T13:50:10.870Z,5.00
2023-06-19T13:52:37.778Z,4.60
2023-06-19T13:55:07.552Z,4.60
2023-06-19T13:57:38.566Z,4.40
2023-06-19T14:00:10.866Z,4.40
2023-06-19T14:02:39.764Z,3.93
2023-06-19T14:05:08.829Z,4.43
2023-06-19T14:07:38.743Z,3.53
2023-06-19T14:10:11.752Z,3.77
2023-06-19T14:12:43.792Z,3.87
2023-06-19T14:15:13.043Z,3.27
2023-06-19T14:17:42.186Z,3.00
2023-06-19T14:20:14.554Z,4.13
2023-06-19T14:22:43.804Z,3.30
2023-06-19T14:25:11.064Z,3.07
2023-06-19T14:27:41.111Z,3.47
2023-06-19T14:30:09.444Z,3.27
2023-06-19T14:32:39.126Z,3.07
2023-06-19T14:35:07.379Z,3.13
2023-06-19T14:37:34.450Z,3.50
2023-06-19T14:48:18.327Z,3.50
2023-06-19T14:50:45.436Z,3.40
2023-06-19T14:53:12.562Z,3.50
2023-06-19T14:55:47.761Z,3.90
2023-06-19T14:58:15.409Z,3.20
2023-06-19T15:00:45.284Z,3.10
2023-06-19T15:03:16.115Z,3.30
2023-06-19T15:05:46.118Z,3.20
2023-06-19T15:08:13.108Z,2.73
2023-06-19T15:10:42.367Z,3.10
2023-06-19T15:13:11.385Z,3.53
2023-06-19T15:15:38.464Z,3.30
2023-06-19T15:18:08.203Z,3.50
2023-06-19T15:20:35.373Z,3.07
2023-06-19T15:23:02.277Z,3.20
2023-06-19T15:25:32.184Z,3.13
2023-06-19T15:28:04.083Z,2.90
2023-06-19T15:30:38.145Z,3.70
2023-06-19T15:33:07.724Z,3.33
2023-06-19T15:35:34.795Z,3.00
2023-06-19T15:38:04.084Z,3.03
2023-06-19T15:40:33.730Z,2.67
2023-06-19T15:43:03.415Z,2.80
2023-06-19T15:45:33.367Z,3.03
2023-06-19T15:48:02.334Z,2.73
2023-06-19T15:50:29.679Z,3.20
2023-06-19T15:52:59.702Z,3.13
2023-06-19T15:55:28.596Z,3.27
2023-06-19T15:57:55.669Z,2.47
2023-06-19T16:00:22.804Z,2.70
2023-06-19T16:02:50.266Z,2.83
2023-06-19T16:05:18.045Z,2.67
2023-06-19T16:07:45.210Z,2.60
2023-06-19T16:10:12.328Z,2.73
2023-06-19T16:12:42.100Z,2.80
2023-06-19T16:15:10.367Z,2.67
2023-06-19T16:17:43.181Z,2.90
2023-06-19T16:20:11.674Z,2.63
2023-06-19T16:22:38.846Z,3.40
2023-06-19T16:25:10.180Z,3.17
2023-06-19T16:27:42.630Z,3.50
2023-06-19T16:30:10.589Z,2.70
2023-06-19T16:32:37.746Z,3.03
2023-06-19T16:35:05.970Z,3.20
2023-06-19T16:37:32.946Z,3.20
2023-06-19T16:40:02.436Z,2.90
2023-06-19T16:42:29.369Z,3.20
2023-06-19T16:44:56.427Z,3.00
2023-06-19T16:47:23.635Z,3.23
2023-06-19T16:49:51.052Z,3.57
2023-06-19T16:52:21.144Z,3.97
2023-06-19T16:54:48.091Z,3.20
2023-06-19T16:57:19.281Z,2.70
2023-06-19T16:59:49.138Z,3.10
2023-06-19T17:02:16.123Z,2.53
2023-06-19T17:04:43.291Z,2.97
2023-06-19T17:07:10.216Z,3.00
2023-06-19T17:09:39.716Z,3.00
2023-06-19T17:12:07.241Z,3.90
2023-06-19T17:14:34.210Z,4.03
2023-06-19T17:17:03.978Z,5.97
2023-06-19T17:19:30.961Z,3.60
2023-06-19T17:22:00.222Z,3.80
2023-06-19T17:24:31.723Z,5.10
2023-06-19T17:27:01.926Z,3.50
2023-06-19T17:29:28.910Z,3.80
2023-06-19T17:31:58.539Z,4.13
2023-06-19T17:34:25.598Z,4.13
2023-06-19T17:36:55.147Z,3.87
2023-06-19T17:39:24.353Z,4.00
2023-06-19T17:41:53.792Z,3.63
2023-06-19T17:44:26.683Z,3.97
2023-06-19T17:46:56.396Z,5.93
2023-06-19T17:49:23.758Z,4.93
2023-06-19T17:51:50.887Z,4.87
2023-06-19T17:54:22.445Z,5.70
2023-06-19T17:56:52.564Z,5.90
2023-06-19T17:59:21.651Z,5.87
2023-06-19T18:01:50.726Z,8.60
2023-06-19T18:04:17.906Z,6.27
2023-06-19T18:06:49.634Z,6.33
2023-06-19T18:09:16.568Z,6.30
2023-06-19T18:11:43.612Z,5.80
2023-06-19T18:14:15.292Z,6.43
2023-06-19T18:16:43.882Z,6.70
2023-06-19T18:19:13.085Z,6.43
2023-06-19T18:21:42.140Z,6.50
2023-06-19T18:24:13.829Z,6.53
2023-06-19T18:26:43.027Z,6.33
2023-06-19T18:29:10.140Z,6.47
2023-06-19T18:31:42.362Z,7.50
2023-06-19T18:34:12.529Z,7.10
2023-06-19T18:36:39.456Z,6.93
2023-06-19T18:39:07.674Z,7.07
2023-06-19T18:41:34.732Z,7.43
2023-06-19T18:44:01.749Z,7.07
2023-06-19T18:46:34.926Z,10.47
2023-06-19T18:49:01.927Z,11.03
2023-06-19T18:51:28.988Z,7.57
2023-06-19T18:53:58.002Z,7.30
2023-06-19T18:56:25.212Z,7.67
2023-06-19T18:58:52.211Z,7.40
2023-06-19T19:01:20.509Z,7.10
2023-06-19T19:03:47.541Z,7.43
2023-06-19T19:06:18.447Z,7.07
2023-06-19T19:08:47.693Z,7.90
2023-06-19T19:11:14.953Z,7.30
2023-06-19T19:13:41.851Z,7.43
2023-06-19T19:16:13.197Z,7.73
2023-06-19T19:18:40.274Z,7.70
2023-06-19T19:21:07.393Z,8.10
2023-06-19T19:23:35.698Z,8.63
2023-06-19T19:26:08.777Z,8.63
2023-06-19T19:28:37.574Z,7.70
2023-06-19T19:31:05.284Z,7.83
2023-06-19T19:33:34.374Z,7.30
2023-06-19T19:36:02.317Z,7.20
2023-06-19T19:38:30.909Z,7.73
2023-06-19T19:41:00.061Z,8.17
2023-06-19T19:43:29.252Z,7.10
2023-06-19T19:45:59.376Z,7.80
2023-06-19T19:48:28.996Z,7.17
2023-06-19T19:50:59.118Z,8.07
2023-06-19T19:53:26.250Z,7.90
2023-06-19T19:55:53.614Z,7.10
2023-06-19T19:58:20.823Z,7.20
2023-06-19T20:00:50.632Z,7.27
2023-06-19T20:03:18.279Z,6.50
2023-06-19T20:05:45.403Z,6.20
2023-06-19T20:08:12.454Z,6.70
2023-06-19T20:10:39.607Z,7.20
2023-06-19T20:13:09.838Z,7.50
2023-06-19T20:15:36.897Z,8.70
2023-06-19T20:18:04.392Z,7.43
2023-06-19T20:20:34.141Z,7.47
2023-06-19T20:23:01.812Z,7.90
2023-06-19T20:25:33.600Z,8.40
2023-06-19T20:28:08.473Z,8.23
2023-06-19T20:30:36.580Z,8.50
2023-06-19T20:33:04.473Z,8.83
2023-06-19T20:35:32.361Z,9.17
2023-06-19T20:38:00.376Z,9.10
2023-06-19T20:40:28.879Z,8.73
2023-06-19T20:42:56.507Z,9.30
2023-06-19T20:45:27.514Z,9.50
2023-06-19T20:47:55.020Z,9.80
2023-06-19T20:50:22.529Z,9.40
2023-06-19T20:52:49.953Z,9.20
2023-06-19T20:55:17.894Z,9.80
2023-06-19T20:57:45.350Z,9.53
2023-06-19T21:00:13.606Z,9.17
2023-06-19T21:02:41.356Z,9.40
2023-06-19T21:05:13.267Z,9.70
2023-06-19T21:07:46.829Z,9.50
2023-06-19T21:10:16.733Z,9.43
2023-06-19T21:12:47.749Z,9.53
2023-06-19T21:15:17.613Z,9.50
2023-06-19T21:17:45.200Z,9.40
2023-06-19T21:20:12.975Z,9.40
2023-06-19T21:22:43.135Z,9.73
2023-06-19T21:25:10.592Z,9.53
2023-06-19T21:27:38.539Z,7.97
2023-06-19T21:30:09.332Z,9.67
2023-06-19T21:32:39.215Z,9.20
2023-06-19T21:35:09.884Z,9.27
2023-06-19T21:37:37.021Z,9.67
2023-06-19T21:40:05.127Z,9.80
2023-06-19T21:42:33.836Z,8.70
2023-06-19T21:45:01.104Z,11.03
2023-06-19T21:47:28.441Z,9.90
2023-06-19T21:49:56.321Z,9.33
2023-06-19T21:52:23.523Z,10.20
2023-06-19T21:54:51.128Z,10.40
2023-06-19T21:57:18.600Z,9.77
2023-06-19T21:59:46.066Z,9.60
2023-06-19T22:02:15.490Z,9.90
2023-06-19T22:04:43.147Z,9.73
2023-06-19T22:07:12.257Z,9.80
2023-06-19T22:09:41.368Z,9.80
2023-06-19T22:12:09.583Z,9.70
2023-06-19T22:14:41.609Z,9.77
2023-06-19T22:17:09.726Z,9.77
2023-06-19T22:19:40.037Z,10.50
2023-06-19T22:22:07.870Z,9.73
2023-06-19T22:24:37.417Z,10.53
2023-06-19T22:27:11.316Z,9.80
2023-06-19T22:29:38.849Z,10.00
2023-06-19T22:32:06.396Z,10.30
2023-06-19T22:34:36.378Z,9.53
2023-06-19T22:37:04.370Z,10.60
2023-06-19T22:39:34.366Z,10.10
2023-06-19T22:42:02.134Z,10.63
2023-06-19T22:44:29.329Z,10.23
2023-06-19T22:46:56.395Z,9.83
2023-06-19T22:49:30.499Z,9.70
2023-06-19T22:52:00.729Z,10.30
2023-06-19T22:54:28.373Z,9.50
2023-06-19T22:56:56.519Z,10.00
2023-06-19T22:59:26.175Z,9.20
2023-06-19T23:01:53.470Z,10.40
2023-06-19T23:04:23.337Z,10.13
2023-06-19T23:06:52.460Z,9.80
2023-06-19T23:09:19.786Z,10.37
2023-06-19T23:11:49.562Z,10.73
2023-06-19T23:14:16.950Z,10.77
2023-06-19T23:16:47.220Z,10.77
2023-06-19T23:19:16.939Z,9.70
2023-06-19T23:21:44.416Z,11.13
2023-06-19T23:24:11.846Z,9.80
2023-06-19T23:26:41.354Z,10.70
2023-06-19T23:29:08.758Z,10.60
2023-06-19T23:31:41.951Z,10.33
2023-06-19T23:34:11.547Z,10.27
2023-06-19T23:36:38.655Z,10.23
2023-06-19T23:39:06.055Z,10.13
2023-06-19T23:41:36.395Z,10.90
2023-06-19T23:44:06.346Z,10.00
2023-06-19T23:46:34.809Z,10.80
2023-06-19T23:49:01.995Z,10.63
2023-06-19T23:51:31.987Z,11.20
2023-06-19T23:54:01.650Z,10.37
2023-06-19T23:56:31.913Z,11.00
2023-06-19T23:58:59.387Z,11.40
